sensor_id;sensor_type;location;lat;lon;timestamp;P1;durP1;ratioP1;P2;durP2;ratioP2
39104;SDS011;46464;51.154;13.812;2022-11-23T00:01:20;27.83;;;17.73;;
39104;SDS011;46464;51.154;13.812;2022-11-23T00:03:52;31.42;;;18.10;;
39104;SDS011;46464;51.154;13.812;2022-11-23T00:06:20;29.25;;;17.70;;
39104;SDS011;46464;51.154;13.812;2022-11-23T00:08:49;28.25;;;17.13;;
39104;SDS011;46464;51.154;13.812;2022-11-23T00:11:16;28.45;;;18.15;;
39104;SDS011;46464;51.154;13.812;2022-11-23T00:13:44;29.95;;;17.35;;
39104;SDS011;46464;51.154;13.812;2022-11-23T00:16:12;35.40;;;19.70;;
39104;SDS011;46464;51.154;13.812;2022-11-23T00:18:46;32.65;;;18.75;;
39104;SDS011;46464;51.154;13.812;2022-11-23T00:23:41;29.27;;;18.20;;
39104;SDS011;46464;51.154;13.812;2022-11-23T00:26:09;31.50;;;17.65;;
39104;SDS011;46464;51.154;13.812;2022-11-23T00:28:36;31.10;;;18.92;;
39104;SDS011;46464;51.154;13.812;2022-11-23T00:31:06;29.60;;;18.27;;
39104;SDS011;46464;51.154;13.812;2022-11-23T00:33:33;33.15;;;19.17;;
39104;SDS011;46464;51.154;13.812;2022-11-23T00:36:00;29.48;;;18.40;;
39104;SDS011;46464;51.154;13.812;2022-11-23T00:38:29;33.17;;;18.97;;
39104;SDS011;46464;51.154;13.812;2022-11-23T00:43:23;31.92;;;17.35;;
39104;SDS011;46464;51.154;13.812;2022-11-23T00:46:00;31.05;;;18.90;;
39104;SDS011;46464;51.154;13.812;2022-11-23T00:48:28;30.65;;;18.10;;
39104;SDS011;46464;51.154;13.812;2022-11-23T00:55:51;28.92;;;16.40;;
39104;SDS011;46464;51.154;13.812;2022-11-23T00:58:19;32.88;;;19.00;;
39104;SDS011;46464;51.154;13.812;2022-11-23T01:00:46;31.30;;;18.50;;
39104;SDS011;46464;51.154;13.812;2022-11-23T01:05:40;27.40;;;16.58;;
39104;SDS011;46464;51.154;13.812;2022-11-23T01:10:34;29.38;;;17.88;;
39104;SDS011;46464;51.154;13.812;2022-11-23T01:13:00;29.65;;;17.77;;
39104;SDS011;46464;51.154;13.812;2022-11-23T01:15:27;30.75;;;17.45;;
39104;SDS011;46464;51.154;13.812;2022-11-23T01:17:54;31.88;;;16.90;;
39104;SDS011;46464;51.154;13.812;2022-11-23T01:20:20;28.70;;;18.15;;
39104;SDS011;46464;51.154;13.812;2022-11-23T01:22:47;30.90;;;18.08;;
39104;SDS011;46464;51.154;13.812;2022-11-23T01:25:13;29.88;;;17.35;;
39104;SDS011;46464;51.154;13.812;2022-11-23T01:27:40;29.02;;;17.25;;
39104;SDS011;46464;51.154;13.812;2022-11-23T01:30:07;29.65;;;18.08;;
39104;SDS011;46464;51.154;13.812;2022-11-23T01:32:34;32.95;;;18.83;;
39104;SDS011;46464;51.154;13.812;2022-11-23T01:35:00;29.80;;;16.88;;
39104;SDS011;46464;51.154;13.812;2022-11-23T01:37:27;30.38;;;17.23;;
39104;SDS011;46464;51.154;13.812;2022-11-23T01:39:53;28.63;;;17.50;;
39104;SDS011;46464;51.154;13.812;2022-11-23T01:42:20;30.70;;;16.60;;
39104;SDS011;46464;51.154;13.812;2022-11-23T01:44:46;30.48;;;17.02;;
39104;SDS011;46464;51.154;13.812;2022-11-23T01:47:13;30.30;;;16.40;;
39104;SDS011;46464;51.154;13.812;2022-11-23T01:52:12;25.35;;;15.48;;
39104;SDS011;46464;51.154;13.812;2022-11-23T01:54:46;25.73;;;15.32;;
39104;SDS011;46464;51.154;13.812;2022-11-23T01:57:20;27.02;;;15.73;;
39104;SDS011;46464;51.154;13.812;2022-11-23T01:59:50;26.52;;;16.25;;
39104;SDS011;46464;51.154;13.812;2022-11-23T02:02:18;27.02;;;16.05;;
39104;SDS011;46464;51.154;13.812;2022-11-23T02:04:45;24.27;;;16.17;;
39104;SDS011;46464;51.154;13.812;2022-11-23T02:07:15;27.45;;;15.75;;
39104;SDS011;46464;51.154;13.812;2022-11-23T02:09:44;26.23;;;15.50;;
39104;SDS011;46464;51.154;13.812;2022-11-23T02:12:12;25.73;;;14.30;;
39104;SDS011;46464;51.154;13.812;2022-11-23T02:14:40;27.52;;;15.80;;
39104;SDS011;46464;51.154;13.812;2022-11-23T02:17:07;26.58;;;16.65;;
39104;SDS011;46464;51.154;13.812;2022-11-23T02:22:00;28.85;;;16.15;;
39104;SDS011;46464;51.154;13.812;2022-11-23T02:26:58;31.47;;;15.73;;
39104;SDS011;46464;51.154;13.812;2022-11-23T02:29:27;27.83;;;15.82;;
39104;SDS011;46464;51.154;13.812;2022-11-23T02:31:55;29.55;;;16.23;;
39104;SDS011;46464;51.154;13.812;2022-11-23T02:34:21;26.65;;;16.10;;
39104;SDS011;46464;51.154;13.812;2022-11-23T02:36:49;20.52;;;11.98;;
39104;SDS011;46464;51.154;13.812;2022-11-23T02:39:20;30.35;;;16.40;;
39104;SDS011;46464;51.154;13.812;2022-11-23T02:41:53;28.05;;;16.23;;
39104;SDS011;46464;51.154;13.812;2022-11-23T02:47:15;28.27;;;16.73;;
39104;SDS011;46464;51.154;13.812;2022-11-23T02:49:45;27.63;;;16.52;;
39104;SDS011;46464;51.154;13.812;2022-11-23T02:52:13;31.67;;;17.15;;
39104;SDS011;46464;51.154;13.812;2022-11-23T02:54:39;33.42;;;17.33;;
39104;SDS011;46464;51.154;13.812;2022-11-23T02:57:06;34.75;;;17.65;;
39104;SDS011;46464;51.154;13.812;2022-11-23T02:59:33;29.85;;;16.63;;
39104;SDS011;46464;51.154;13.812;2022-11-23T03:02:00;28.77;;;16.42;;
39104;SDS011;46464;51.154;13.812;2022-11-23T03:04:28;30.33;;;15.05;;
39104;SDS011;46464;51.154;13.812;2022-11-23T03:06:55;25.27;;;14.88;;
39104;SDS011;46464;51.154;13.812;2022-11-23T03:11:51;31.58;;;17.23;;
39104;SDS011;46464;51.154;13.812;2022-11-23T03:14:18;30.35;;;16.80;;
39104;SDS011;46464;51.154;13.812;2022-11-23T03:16:45;27.17;;;16.58;;
39104;SDS011;46464;51.154;13.812;2022-11-23T03:19:12;31.83;;;18.30;;
39104;SDS011;46464;51.154;13.812;2022-11-23T03:21:39;31.73;;;17.92;;
39104;SDS011;46464;51.154;13.812;2022-11-23T03:24:05;33.58;;;16.90;;
39104;SDS011;46464;51.154;13.812;2022-11-23T03:26:32;33.63;;;17.65;;
39104;SDS011;46464;51.154;13.812;2022-11-23T03:28:58;31.52;;;17.98;;
39104;SDS011;46464;51.154;13.812;2022-11-23T03:31:25;33.90;;;17.98;;
39104;SDS011;46464;51.154;13.812;2022-11-23T03:33:52;37.95;;;19.80;;
39104;SDS011;46464;51.154;13.812;2022-11-23T03:36:18;31.30;;;16.98;;
39104;SDS011;46464;51.154;13.812;2022-11-23T03:38:45;24.52;;;14.48;;
39104;SDS011;46464;51.154;13.812;2022-11-23T03:41:11;31.77;;;18.63;;
39104;SDS011;46464;51.154;13.812;2022-11-23T03:43:38;27.77;;;16.40;;
39104;SDS011;46464;51.154;13.812;2022-11-23T03:46:05;31.00;;;16.73;;
39104;SDS011;46464;51.154;13.812;2022-11-23T03:48:31;30.92;;;16.13;;
39104;SDS011;46464;51.154;13.812;2022-11-23T03:50:58;30.00;;;17.10;;
39104;SDS011;46464;51.154;13.812;2022-11-23T03:53:24;32.53;;;17.02;;
39104;SDS011;46464;51.154;13.812;2022-11-23T03:58:20;30.63;;;17.65;;
39104;SDS011;46464;51.154;13.812;2022-11-23T04:00:47;30.25;;;17.92;;
39104;SDS011;46464;51.154;13.812;2022-11-23T04:03:13;28.17;;;16.30;;
39104;SDS011;46464;51.154;13.812;2022-11-23T04:05:40;30.38;;;17.23;;
39104;SDS011;46464;51.154;13.812;2022-11-23T04:08:07;30.98;;;16.50;;
39104;SDS011;46464;51.154;13.812;2022-11-23T04:10:34;32.38;;;17.02;;
39104;SDS011;46464;51.154;13.812;2022-11-23T04:13:01;31.08;;;16.38;;
39104;SDS011;46464;51.154;13.812;2022-11-23T04:15:28;31.25;;;16.75;;
39104;SDS011;46464;51.154;13.812;2022-11-23T04:17:54;30.88;;;16.50;;
39104;SDS011;46464;51.154;13.812;2022-11-23T04:20:21;33.47;;;16.48;;
39104;SDS011;46464;51.154;13.812;2022-11-23T04:25:14;34.88;;;17.30;;
39104;SDS011;46464;51.154;13.812;2022-11-23T04:27:40;28.85;;;17.02;;
39104;SDS011;46464;51.154;13.812;2022-11-23T04:30:08;32.17;;;17.35;;
39104;SDS011;46464;51.154;13.812;2022-11-23T04:32:34;30.13;;;16.92;;
39104;SDS011;46464;51.154;13.812;2022-11-23T04:35:01;28.55;;;16.55;;
39104;SDS011;46464;51.154;13.812;2022-11-23T04:37:28;30.95;;;17.52;;
39104;SDS011;46464;51.154;13.812;2022-11-23T04:39:54;29.10;;;16.90;;
39104;SDS011;46464;51.154;13.812;2022-11-23T04:42:21;32.38;;;16.95;;
39104;SDS011;46464;51.154;13.812;2022-11-23T04:44:48;33.45;;;18.38;;
39104;SDS011;46464;51.154;13.812;2022-11-23T04:47:14;33.08;;;18.05;;
39104;SDS011;46464;51.154;13.812;2022-11-23T04:49:41;30.70;;;16.75;;
39104;SDS011;46464;51.154;13.812;2022-11-23T04:52:07;35.70;;;18.30;;
39104;SDS011;46464;51.154;13.812;2022-11-23T04:54:34;33.97;;;16.85;;
39104;SDS011;46464;51.154;13.812;2022-11-23T04:57:00;33.13;;;17.92;;
39104;SDS011;46464;51.154;13.812;2022-11-23T04:59:27;33.35;;;18.83;;
39104;SDS011;46464;51.154;13.812;2022-11-23T05:04:20;33.95;;;17.17;;
39104;SDS011;46464;51.154;13.812;2022-11-23T05:06:47;34.75;;;18.67;;
39104;SDS011;46464;51.154;13.812;2022-11-23T05:09:13;33.63;;;17.67;;
39104;SDS011;46464;51.154;13.812;2022-11-23T05:11:40;33.65;;;18.80;;
39104;SDS011;46464;51.154;13.812;2022-11-23T05:14:07;36.58;;;17.98;;
39104;SDS011;46464;51.154;13.812;2022-11-23T05:16:34;32.95;;;17.88;;
39104;SDS011;46464;51.154;13.812;2022-11-23T05:19:00;33.60;;;17.45;;
39104;SDS011;46464;51.154;13.812;2022-11-23T05:21:27;32.13;;;17.15;;
39104;SDS011;46464;51.154;13.812;2022-11-23T05:23:54;36.38;;;18.08;;
39104;SDS011;46464;51.154;13.812;2022-11-23T05:26:20;31.90;;;18.00;;
39104;SDS011;46464;51.154;13.812;2022-11-23T05:28:47;31.30;;;17.58;;
39104;SDS011;46464;51.154;13.812;2022-11-23T05:31:14;32.30;;;17.80;;
39104;SDS011;46464;51.154;13.812;2022-11-23T05:33:40;31.40;;;17.27;;
39104;SDS011;46464;51.154;13.812;2022-11-23T05:36:07;34.65;;;19.55;;
39104;SDS011;46464;51.154;13.812;2022-11-23T05:38:34;33.47;;;18.97;;
39104;SDS011;46464;51.154;13.812;2022-11-23T05:41:01;37.45;;;19.55;;
39104;SDS011;46464;51.154;13.812;2022-11-23T05:43:27;34.50;;;18.50;;
39104;SDS011;46464;51.154;13.812;2022-11-23T05:45:57;33.35;;;18.95;;
39104;SDS011;46464;51.154;13.812;2022-11-23T05:48:24;33.97;;;17.77;;
39104;SDS011;46464;51.154;13.812;2022-11-23T05:50:50;35.28;;;19.73;;
39104;SDS011;46464;51.154;13.812;2022-11-23T05:53:17;33.63;;;17.67;;
39104;SDS011;46464;51.154;13.812;2022-11-23T05:55:44;32.38;;;17.70;;
39104;SDS011;46464;51.154;13.812;2022-11-23T05:58:11;34.88;;;18.20;;
39104;SDS011;46464;51.154;13.812;2022-11-23T06:00:38;35.00;;;19.40;;
39104;SDS011;46464;51.154;13.812;2022-11-23T06:03:04;32.88;;;17.67;;
39104;SDS011;46464;51.154;13.812;2022-11-23T06:05:31;33.88;;;19.38;;
39104;SDS011;46464;51.154;13.812;2022-11-23T06:10:24;34.45;;;17.77;;
39104;SDS011;46464;51.154;13.812;2022-11-23T06:12:51;27.50;;;14.10;;
39104;SDS011;46464;51.154;13.812;2022-11-23T06:15:18;34.97;;;17.98;;
39104;SDS011;46464;51.154;13.812;2022-11-23T06:17:44;35.83;;;18.52;;
39104;SDS011;46464;51.154;13.812;2022-11-23T06:20:11;33.83;;;19.23;;
39104;SDS011;46464;51.154;13.812;2022-11-23T06:22:37;31.23;;;17.92;;
39104;SDS011;46464;51.154;13.812;2022-11-23T06:25:04;34.15;;;18.08;;
39104;SDS011;46464;51.154;13.812;2022-11-23T06:29:58;36.08;;;18.08;;
39104;SDS011;46464;51.154;13.812;2022-11-23T06:32:24;35.63;;;20.00;;
39104;SDS011;46464;51.154;13.812;2022-11-23T06:34:51;33.85;;;19.27;;
39104;SDS011;46464;51.154;13.812;2022-11-23T06:37:21;36.38;;;19.27;;
39104;SDS011;46464;51.154;13.812;2022-11-23T06:39:48;33.22;;;18.33;;
39104;SDS011;46464;51.154;13.812;2022-11-23T06:42:15;33.22;;;18.85;;
39104;SDS011;46464;51.154;13.812;2022-11-23T06:45:01;35.15;;;19.33;;
39104;SDS011;46464;51.154;13.812;2022-11-23T06:47:28;37.22;;;18.45;;
39104;SDS011;46464;51.154;13.812;2022-11-23T06:49:55;30.38;;;17.67;;
39104;SDS011;46464;51.154;13.812;2022-11-23T06:52:21;32.83;;;19.83;;
39104;SDS011;46464;51.154;13.812;2022-11-23T06:54:48;36.08;;;19.25;;
39104;SDS011;46464;51.154;13.812;2022-11-23T06:57:14;34.08;;;18.45;;
39104;SDS011;46464;51.154;13.812;2022-11-23T06:59:41;34.15;;;19.40;;
39104;SDS011;46464;51.154;13.812;2022-11-23T07:02:10;34.87;;;18.50;;
39104;SDS011;46464;51.154;13.812;2022-11-23T07:04:37;34.17;;;19.17;;
39104;SDS011;46464;51.154;13.812;2022-11-23T07:07:04;33.50;;;18.42;;
39104;SDS011;46464;51.154;13.812;2022-11-23T07:09:33;31.55;;;17.95;;
39104;SDS011;46464;51.154;13.812;2022-11-23T07:12:00;32.05;;;17.15;;
39104;SDS011;46464;51.154;13.812;2022-11-23T07:14:26;31.65;;;17.10;;
39104;SDS011;46464;51.154;13.812;2022-11-23T07:16:53;32.58;;;17.77;;
39104;SDS011;46464;51.154;13.812;2022-11-23T07:19:20;33.05;;;17.48;;
39104;SDS011;46464;51.154;13.812;2022-11-23T07:21:46;28.80;;;17.45;;
39104;SDS011;46464;51.154;13.812;2022-11-23T07:24:13;34.20;;;17.45;;
39104;SDS011;46464;51.154;13.812;2022-11-23T07:26:39;32.30;;;16.88;;
39104;SDS011;46464;51.154;13.812;2022-11-23T07:29:06;28.33;;;15.75;;
39104;SDS011;46464;51.154;13.812;2022-11-23T07:31:32;27.27;;;16.45;;
39104;SDS011;46464;51.154;13.812;2022-11-23T07:33:59;33.17;;;17.77;;
39104;SDS011;46464;51.154;13.812;2022-11-23T07:36:25;36.10;;;19.25;;
39104;SDS011;46464;51.154;13.812;2022-11-23T07:38:52;36.45;;;18.20;;
39104;SDS011;46464;51.154;13.812;2022-11-23T07:41:18;33.58;;;18.25;;
39104;SDS011;46464;51.154;13.812;2022-11-23T07:43:45;35.28;;;18.75;;
39104;SDS011;46464;51.154;13.812;2022-11-23T07:46:11;32.33;;;17.35;;
39104;SDS011;46464;51.154;13.812;2022-11-23T07:48:38;32.30;;;17.50;;
39104;SDS011;46464;51.154;13.812;2022-11-23T07:51:04;24.85;;;14.00;;
39104;SDS011;46464;51.154;13.812;2022-11-23T07:53:31;37.92;;;19.30;;
39104;SDS011;46464;51.154;13.812;2022-11-23T07:55:58;23.23;;;13.65;;
39104;SDS011;46464;51.154;13.812;2022-11-23T07:58:24;30.27;;;17.70;;
39104;SDS011;46464;51.154;13.812;2022-11-23T08:00:51;34.38;;;18.10;;
39104;SDS011;46464;51.154;13.812;2022-11-23T08:03:18;34.33;;;18.63;;
39104;SDS011;46464;51.154;13.812;2022-11-23T08:05:53;33.42;;;18.13;;
39104;SDS011;46464;51.154;13.812;2022-11-23T08:08:20;32.05;;;16.88;;
39104;SDS011;46464;51.154;13.812;2022-11-23T08:10:46;31.20;;;16.92;;
39104;SDS011;46464;51.154;13.812;2022-11-23T08:13:18;31.63;;;16.90;;
39104;SDS011;46464;51.154;13.812;2022-11-23T08:15:45;30.25;;;16.52;;
39104;SDS011;46464;51.154;13.812;2022-11-23T08:18:19;28.27;;;15.40;;
39104;SDS011;46464;51.154;13.812;2022-11-23T08:20:46;34.75;;;18.15;;
39104;SDS011;46464;51.154;13.812;2022-11-23T08:23:12;36.17;;;18.55;;
39104;SDS011;46464;51.154;13.812;2022-11-23T08:25:39;31.90;;;18.00;;
39104;SDS011;46464;51.154;13.812;2022-11-23T08:28:05;26.17;;;13.07;;
39104;SDS011;46464;51.154;13.812;2022-11-23T08:30:32;34.00;;;18.27;;
39104;SDS011;46464;51.154;13.812;2022-11-23T08:33:05;32.87;;;18.37;;
39104;SDS011;46464;51.154;13.812;2022-11-23T08:35:33;34.33;;;18.50;;
39104;SDS011;46464;51.154;13.812;2022-11-23T08:38:02;32.55;;;19.70;;
39104;SDS011;46464;51.154;13.812;2022-11-23T08:40:29;34.28;;;19.23;;
39104;SDS011;46464;51.154;13.812;2022-11-23T08:42:56;34.75;;;18.75;;
39104;SDS011;46464;51.154;13.812;2022-11-23T08:45:22;32.67;;;18.35;;
39104;SDS011;46464;51.154;13.812;2022-11-23T08:47:49;33.38;;;18.40;;
39104;SDS011;46464;51.154;13.812;2022-11-23T08:50:16;32.20;;;18.48;;
39104;SDS011;46464;51.154;13.812;2022-11-23T08:52:43;30.83;;;17.65;;
39104;SDS011;46464;51.154;13.812;2022-11-23T08:55:09;31.85;;;18.25;;
39104;SDS011;46464;51.154;13.812;2022-11-23T09:00:04;28.73;;;15.90;;
39104;SDS011;46464;51.154;13.812;2022-11-23T09:02:31;31.88;;;16.95;;
39104;SDS011;46464;51.154;13.812;2022-11-23T09:04:58;33.60;;;19.38;;
39104;SDS011;46464;51.154;13.812;2022-11-23T09:07:25;30.15;;;16.50;;
39104;SDS011;46464;51.154;13.812;2022-11-23T09:09:52;29.70;;;17.02;;
39104;SDS011;46464;51.154;13.812;2022-11-23T09:12:19;32.08;;;16.70;;
39104;SDS011;46464;51.154;13.812;2022-11-23T09:14:45;34.80;;;19.00;;
39104;SDS011;46464;51.154;13.812;2022-11-23T09:17:12;31.55;;;17.77;;
39104;SDS011;46464;51.154;13.812;2022-11-23T09:19:38;33.78;;;18.13;;
39104;SDS011;46464;51.154;13.812;2022-11-23T09:22:05;33.45;;;18.90;;
39104;SDS011;46464;51.154;13.812;2022-11-23T09:24:32;32.63;;;17.35;;
39104;SDS011;46464;51.154;13.812;2022-11-23T09:29:26;34.25;;;17.70;;
39104;SDS011;46464;51.154;13.812;2022-11-23T09:31:53;27.35;;;17.05;;
39104;SDS011;46464;51.154;13.812;2022-11-23T09:34:19;32.80;;;18.85;;
39104;SDS011;46464;51.154;13.812;2022-11-23T09:36:46;28.75;;;17.48;;
39104;SDS011;46464;51.154;13.812;2022-11-23T09:39:13;28.20;;;17.50;;
39104;SDS011;46464;51.154;13.812;2022-11-23T09:47:32;32.97;;;17.25;;
39104;SDS011;46464;51.154;13.812;2022-11-23T09:50:20;30.92;;;17.48;;
39104;SDS011;46464;51.154;13.812;2022-11-23T09:52:53;27.67;;;16.60;;
39104;SDS011;46464;51.154;13.812;2022-11-23T09:55:36;29.60;;;17.27;;
39104;SDS011;46464;51.154;13.812;2022-11-23T09:58:09;30.67;;;18.73;;
39104;SDS011;46464;51.154;13.812;2022-11-23T10:00:43;30.40;;;17.40;;
39104;SDS011;46464;51.154;13.812;2022-11-23T10:03:14;31.75;;;17.30;;
39104;SDS011;46464;51.154;13.812;2022-11-23T10:05:44;30.10;;;18.02;;
39104;SDS011;46464;51.154;13.812;2022-11-23T10:14:50;30.13;;;17.25;;
39104;SDS011;46464;51.154;13.812;2022-11-23T10:22:53;29.75;;;16.77;;
39104;SDS011;46464;51.154;13.812;2022-11-23T10:25:24;29.83;;;16.70;;
39104;SDS011;46464;51.154;13.812;2022-11-23T10:27:56;27.83;;;15.27;;
39104;SDS011;46464;51.154;13.812;2022-11-23T10:30:28;26.60;;;15.25;;
39104;SDS011;46464;51.154;13.812;2022-11-23T10:33:02;27.42;;;15.90;;
39104;SDS011;46464;51.154;13.812;2022-11-23T10:35:36;26.27;;;15.18;;
39104;SDS011;46464;51.154;13.812;2022-11-23T10:38:13;24.48;;;14.52;;
39104;SDS011;46464;51.154;13.812;2022-11-23T10:41:06;52.15;;;17.27;;
39104;SDS011;46464;51.154;13.812;2022-11-23T10:43:36;28.40;;;15.60;;
39104;SDS011;46464;51.154;13.812;2022-11-23T10:48:49;23.73;;;14.02;;
39104;SDS011;46464;51.154;13.812;2022-11-23T10:51:25;21.77;;;13.68;;
39104;SDS011;46464;51.154;13.812;2022-11-23T10:54:16;23.52;;;14.30;;
39104;SDS011;46464;51.154;13.812;2022-11-23T10:56:49;20.98;;;12.98;;
39104;SDS011;46464;51.154;13.812;2022-11-23T10:59:27;20.73;;;12.85;;
39104;SDS011;46464;51.154;13.812;2022-11-23T11:04:30;20.30;;;12.70;;
39104;SDS011;46464;51.154;13.812;2022-11-23T11:10:02;17.85;;;11.05;;
39104;SDS011;46464;51.154;13.812;2022-11-23T11:12:31;17.40;;;11.38;;
39104;SDS011;46464;51.154;13.812;2022-11-23T11:15:00;17.10;;;10.48;;
39104;SDS011;46464;51.154;13.812;2022-11-23T11:17:37;18.05;;;10.00;;
39104;SDS011;46464;51.154;13.812;2022-11-23T11:23:03;17.50;;;10.73;;
39104;SDS011;46464;51.154;13.812;2022-11-23T11:25:42;14.73;;;9.65;;
39104;SDS011;46464;51.154;13.812;2022-11-23T11:34:12;15.93;;;10.27;;
39104;SDS011;46464;51.154;13.812;2022-11-23T11:39:32;17.85;;;9.75;;
39104;SDS011;46464;51.154;13.812;2022-11-23T11:42:04;16.23;;;10.27;;
39104;SDS011;46464;51.154;13.812;2022-11-23T11:44:35;17.40;;;9.90;;
39104;SDS011;46464;51.154;13.812;2022-11-23T11:47:18;15.10;;;9.70;;
39104;SDS011;46464;51.154;13.812;2022-11-23T11:49:49;13.18;;;8.95;;
39104;SDS011;46464;51.154;13.812;2022-11-23T11:52:20;12.48;;;8.43;;
39104;SDS011;46464;51.154;13.812;2022-11-23T11:55:17;14.05;;;9.07;;
39104;SDS011;46464;51.154;13.812;2022-11-23T11:57:48;15.15;;;9.25;;
39104;SDS011;46464;51.154;13.812;2022-11-23T12:00:20;13.63;;;9.00;;
39104;SDS011;46464;51.154;13.812;2022-11-23T12:05:48;14.82;;;9.38;;
39104;SDS011;46464;51.154;13.812;2022-11-23T12:08:21;14.38;;;8.48;;
39104;SDS011;46464;51.154;13.812;2022-11-23T12:10:57;14.27;;;9.27;;
39104;SDS011;46464;51.154;13.812;2022-11-23T12:13:34;14.30;;;9.32;;
39104;SDS011;46464;51.154;13.812;2022-11-23T12:29:13;16.00;;;10.68;;
39104;SDS011;46464;51.154;13.812;2022-11-23T12:31:42;15.15;;;9.80;;
39104;SDS011;46464;51.154;13.812;2022-11-23T12:42:24;15.73;;;10.35;;
39104;SDS011;46464;51.154;13.812;2022-11-23T12:45:03;23.48;;;11.30;;
39104;SDS011;46464;51.154;13.812;2022-11-23T12:53:27;18.83;;;11.23;;
39104;SDS011;46464;51.154;13.812;2022-11-23T12:58:40;17.35;;;11.68;;
39104;SDS011;46464;51.154;13.812;2022-11-23T13:13:15;24.55;;;15.00;;
39104;SDS011;46464;51.154;13.812;2022-11-23T13:18:57;23.92;;;14.90;;
39104;SDS011;46464;51.154;13.812;2022-11-23T13:21:40;24.70;;;15.10;;
39104;SDS011;46464;51.154;13.812;2022-11-23T13:40:23;21.60;;;13.82;;
39104;SDS011;46464;51.154;13.812;2022-11-23T13:42:52;24.08;;;14.63;;
39104;SDS011;46464;51.154;13.812;2022-11-23T13:45:23;23.67;;;13.98;;
39104;SDS011;46464;51.154;13.812;2022-11-23T13:48:04;22.13;;;14.63;;
39104;SDS011;46464;51.154;13.812;2022-11-23T13:50:59;25.15;;;14.00;;
39104;SDS011;46464;51.154;13.812;2022-11-23T14:04:47;26.73;;;15.48;;
39104;SDS011;46464;51.154;13.812;2022-11-23T14:09:45;28.75;;;16.50;;
39104;SDS011;46464;51.154;13.812;2022-11-23T14:15:18;21.88;;;14.43;;
39104;SDS011;46464;51.154;13.812;2022-11-23T14:31:36;27.23;;;17.15;;
39104;SDS011;46464;51.154;13.812;2022-11-23T14:34:22;28.35;;;17.23;;
39104;SDS011;46464;51.154;13.812;2022-11-23T14:42:25;24.55;;;15.48;;
39104;SDS011;46464;51.154;13.812;2022-11-23T14:44:55;25.63;;;15.90;;
39104;SDS011;46464;51.154;13.812;2022-11-23T14:47:27;27.15;;;16.10;;
39104;SDS011;46464;51.154;13.812;2022-11-23T14:49:55;27.20;;;16.67;;
39104;SDS011;46464;51.154;13.812;2022-11-23T14:54:54;26.70;;;16.63;;
39104;SDS011;46464;51.154;13.812;2022-11-23T14:57:25;27.20;;;16.83;;
39104;SDS011;46464;51.154;13.812;2022-11-23T15:00:01;27.63;;;16.85;;
39104;SDS011;46464;51.154;13.812;2022-11-23T15:02:37;27.30;;;17.42;;
39104;SDS011;46464;51.154;13.812;2022-11-23T15:07:45;32.50;;;19.50;;
39104;SDS011;46464;51.154;13.812;2022-11-23T15:12:50;28.45;;;17.08;;
39104;SDS011;46464;51.154;13.812;2022-11-23T15:15:20;31.42;;;18.73;;
39104;SDS011;46464;51.154;13.812;2022-11-23T15:17:58;28.92;;;17.13;;
39104;SDS011;46464;51.154;13.812;2022-11-23T15:20:33;25.70;;;15.30;;
39104;SDS011;46464;51.154;13.812;2022-11-23T15:23:05;28.17;;;16.88;;
39104;SDS011;46464;51.154;13.812;2022-11-23T15:25:51;26.85;;;16.92;;
39104;SDS011;46464;51.154;13.812;2022-11-23T15:28:25;27.00;;;16.35;;
39104;SDS011;46464;51.154;13.812;2022-11-23T15:30:53;26.30;;;16.35;;
39104;SDS011;46464;51.154;13.812;2022-11-23T15:33:24;28.25;;;17.98;;
39104;SDS011;46464;51.154;13.812;2022-11-23T15:35:51;27.85;;;17.23;;
39104;SDS011;46464;51.154;13.812;2022-11-23T15:38:19;28.48;;;16.80;;
39104;SDS011;46464;51.154;13.812;2022-11-23T15:40:49;27.42;;;16.33;;
39104;SDS011;46464;51.154;13.812;2022-11-23T15:43:17;27.48;;;16.00;;
39104;SDS011;46464;51.154;13.812;2022-11-23T15:48:12;30.38;;;17.70;;
39104;SDS011;46464;51.154;13.812;2022-11-23T15:50:56;28.98;;;16.45;;
39104;SDS011;46464;51.154;13.812;2022-11-23T15:53:28;26.90;;;16.40;;
39104;SDS011;46464;51.154;13.812;2022-11-23T15:56:02;26.45;;;15.57;;
39104;SDS011;46464;51.154;13.812;2022-11-23T15:58:30;28.15;;;17.73;;
39104;SDS011;46464;51.154;13.812;2022-11-23T16:01:06;28.40;;;17.63;;
39104;SDS011;46464;51.154;13.812;2022-11-23T16:03:48;29.48;;;17.23;;
39104;SDS011;46464;51.154;13.812;2022-11-23T16:14:52;30.63;;;19.02;;
39104;SDS011;46464;51.154;13.812;2022-11-23T16:17:26;29.85;;;18.98;;
39104;SDS011;46464;51.154;13.812;2022-11-23T16:19:58;28.67;;;18.88;;
39104;SDS011;46464;51.154;13.812;2022-11-23T16:22:32;28.98;;;18.27;;
39104;SDS011;46464;51.154;13.812;2022-11-23T16:25:06;30.67;;;19.10;;
39104;SDS011;46464;51.154;13.812;2022-11-23T16:27:43;31.10;;;19.15;;
39104;SDS011;46464;51.154;13.812;2022-11-23T16:30:22;27.50;;;18.67;;
39104;SDS011;46464;51.154;13.812;2022-11-23T16:32:50;28.92;;;19.35;;
39104;SDS011;46464;51.154;13.812;2022-11-23T16:35:18;30.08;;;18.42;;
39104;SDS011;46464;51.154;13.812;2022-11-23T16:37:45;31.05;;;18.73;;
39104;SDS011;46464;51.154;13.812;2022-11-23T16:40:12;31.35;;;18.83;;
39104;SDS011;46464;51.154;13.812;2022-11-23T16:42:39;25.60;;;16.17;;
39104;SDS011;46464;51.154;13.812;2022-11-23T16:45:08;29.65;;;17.77;;
39104;SDS011;46464;51.154;13.812;2022-11-23T16:47:35;33.35;;;17.73;;
39104;SDS011;46464;51.154;13.812;2022-11-23T16:50:17;29.13;;;18.00;;
39104;SDS011;46464;51.154;13.812;2022-11-23T16:52:43;27.58;;;17.05;;
39104;SDS011;46464;51.154;13.812;2022-11-23T16:55:10;30.42;;;19.15;;
39104;SDS011;46464;51.154;13.812;2022-11-23T16:57:36;23.02;;;14.18;;
39104;SDS011;46464;51.154;13.812;2022-11-23T17:00:05;32.05;;;18.98;;
39104;SDS011;46464;51.154;13.812;2022-11-23T17:03:01;28.98;;;17.73;;
39104;SDS011;46464;51.154;13.812;2022-11-23T17:05:27;31.45;;;17.52;;
39104;SDS011;46464;51.154;13.812;2022-11-23T17:07:54;28.75;;;18.95;;
39104;SDS011;46464;51.154;13.812;2022-11-23T17:10:21;39.95;;;20.58;;
39104;SDS011;46464;51.154;13.812;2022-11-23T17:12:51;31.35;;;18.25;;
39104;SDS011;46464;51.154;13.812;2022-11-23T17:15:20;29.98;;;17.92;;
39104;SDS011;46464;51.154;13.812;2022-11-23T17:17:48;30.83;;;19.33;;
39104;SDS011;46464;51.154;13.812;2022-11-23T17:20:15;27.27;;;17.17;;
39104;SDS011;46464;51.154;13.812;2022-11-23T17:22:43;31.52;;;20.70;;
39104;SDS011;46464;51.154;13.812;2022-11-23T17:27:40;31.70;;;18.02;;
39104;SDS011;46464;51.154;13.812;2022-11-23T17:32:44;33.65;;;18.20;;
39104;SDS011;46464;51.154;13.812;2022-11-23T17:35:13;33.60;;;20.65;;
39104;SDS011;46464;51.154;13.812;2022-11-23T17:37:40;35.10;;;19.80;;
39104;SDS011;46464;51.154;13.812;2022-11-23T17:40:16;29.10;;;19.10;;
39104;SDS011;46464;51.154;13.812;2022-11-23T17:42:45;35.35;;;19.88;;
39104;SDS011;46464;51.154;13.812;2022-11-23T17:45:12;33.05;;;19.70;;
39104;SDS011;46464;51.154;13.812;2022-11-23T17:47:40;38.92;;;21.30;;